createdAt,value
2022-09-21T00:01:45.038Z,98.60
2022-09-21T00:04:13.739Z,98.90
2022-09-21T00:06:43.692Z,98.60
2022-09-21T00:09:12.677Z,98.60
2022-09-21T00:11:41.583Z,98.60
2022-09-21T00:14:12.999Z,98.60
2022-09-21T00:16:44.730Z,98.60
2022-09-21T00:19:13.923Z,98.60
2022-09-21T00:21:43.988Z,98.60
2022-09-21T00:24:12.829Z,98.60
2022-09-21T00:26:41.331Z,98.60
2022-09-21T00:29:11.609Z,98.60
2022-09-21T00:31:42.109Z,98.70
2022-09-21T00:34:11.175Z,98.70
2022-09-21T00:36:41.473Z,98.70
2022-09-21T00:39:12.824Z,98.70
2022-09-21T00:41:41.255Z,98.70
2022-09-21T00:44:32.184Z,98.70
2022-09-21T00:47:06.018Z,98.70
2022-09-21T00:49:36.952Z,98.70
2022-09-21T00:52:08.557Z,98.70
2022-09-21T00:54:44.670Z,98.70
2022-09-21T00:57:15.509Z,98.70
2022-09-21T00:59:46.398Z,98.80
2022-09-21T01:02:15.644Z,98.80
2022-09-21T01:04:44.918Z,98.80
2022-09-21T01:07:18.738Z,98.80
2022-09-21T01:09:54.760Z,98.90
2022-09-21T01:12:48.280Z,98.90
2022-09-21T01:15:30.674Z,98.90
2022-09-21T01:18:07.701Z,98.90
2022-09-21T01:21:07.900Z,98.90
2022-09-21T01:24:19.029Z,98.90
2022-09-21T01:27:27.066Z,98.90
2022-09-21T01:30:02.590Z,99.00
2022-09-21T01:32:36.418Z,99.10
2022-09-21T01:35:10.190Z,99.10
2022-09-21T01:37:43.750Z,99.40
2022-09-21T01:40:16.324Z,99.10
2022-09-21T01:42:47.358Z,99.10
2022-09-21T01:45:23.160Z,99.10
2022-09-21T01:47:55.193Z,99.00
2022-09-21T01:50:25.109Z,99.00
2022-09-21T01:53:00.055Z,99.00
2022-09-21T01:55:34.061Z,98.90
2022-09-21T01:58:08.409Z,99.00
2022-09-21T02:00:40.340Z,99.00
2022-09-21T02:03:15.582Z,99.00
2022-09-21T02:05:44.350Z,99.10
2022-09-21T02:08:14.772Z,99.00
2022-09-21T02:10:46.921Z,99.00
2022-09-21T02:13:16.939Z,99.10
2022-09-21T02:15:59.894Z,99.10
2022-09-21T02:18:44.314Z,99.00
2022-09-21T02:21:20.195Z,99.00
2022-09-21T02:23:54.308Z,99.10
2022-09-21T02:26:26.102Z,99.00
2022-09-21T02:29:02.683Z,99.00
2022-09-21T02:31:40.978Z,99.20
2022-09-21T02:34:18.217Z,99.30
2022-09-21T02:36:49.424Z,99.30
2022-09-21T02:39:21.069Z,99.30
2022-09-21T02:42:01.895Z,99.20
2022-09-21T02:44:34.250Z,99.20
2022-09-21T02:47:10.369Z,99.20
2022-09-21T02:49:42.459Z,99.20
2022-09-21T02:52:14.382Z,99.20
2022-09-21T02:54:47.986Z,99.20
2022-09-21T02:57:18.343Z,99.20
2022-09-21T02:59:46.479Z,99.10
2022-09-21T03:02:16.375Z,99.10
2022-09-21T03:04:47.812Z,99.10
2022-09-21T03:07:16.968Z,99.10
2022-09-21T03:09:45.179Z,99.10
2022-09-21T03:12:14.038Z,99.10
2022-09-21T03:14:43.460Z,99.10
2022-09-21T03:17:11.762Z,99.00
2022-09-21T03:19:41.204Z,99.10
2022-09-21T03:22:09.802Z,99.10
2022-09-21T03:24:46.962Z,99.10
2022-09-21T03:27:15.414Z,99.10
2022-09-21T03:29:46.664Z,99.10
2022-09-21T03:32:15.573Z,99.20
2022-09-21T03:34:45.345Z,99.10
2022-09-21T03:37:13.604Z,99.10
2022-09-21T03:39:42.283Z,99.10
2022-09-21T03:42:11.007Z,99.10
2022-09-21T03:44:39.246Z,99.00
2022-09-21T03:47:08.578Z,99.00
2022-09-21T03:49:37.062Z,99.00
2022-09-21T03:52:06.627Z,98.90
2022-09-21T03:54:35.083Z,98.90
2022-09-21T03:57:03.379Z,99.00
2022-09-21T03:59:31.777Z,98.90
2022-09-21T04:01:59.955Z,98.80
2022-09-21T04:04:28.244Z,98.80
2022-09-21T04:06:56.618Z,98.80
2022-09-21T04:09:26.186Z,98.80
2022-09-21T04:11:54.517Z,98.80
2022-09-21T04:14:23.378Z,98.90
2022-09-21T04:16:52.290Z,98.90
2022-09-21T04:19:22.378Z,98.90
2022-09-21T04:21:51.688Z,99.00
2022-09-21T04:24:19.988Z,99.00
2022-09-21T04:26:49.951Z,99.10
2022-09-21T04:29:18.214Z,99.10
2022-09-21T04:31:46.615Z,99.00
2022-09-21T04:34:15.322Z,99.00
2022-09-21T04:36:43.765Z,99.00
2022-09-21T04:39:15.149Z,98.90
2022-09-21T04:41:43.259Z,98.90
2022-09-21T04:44:15.247Z,98.90
2022-09-21T04:46:45.873Z,98.90
2022-09-21T04:49:14.154Z,98.90
2022-09-21T04:51:42.203Z,98.90
2022-09-21T04:54:11.241Z,98.90
2022-09-21T04:56:39.578Z,98.80
2022-09-21T04:59:07.992Z,98.80
2022-09-21T05:01:37.657Z,98.80
2022-09-21T05:04:05.948Z,98.80
2022-09-21T05:06:35.602Z,98.90
2022-09-21T05:09:21.257Z,98.80
2022-09-21T05:11:49.384Z,98.80
2022-09-21T05:14:17.633Z,98.80
2022-09-21T05:16:49.767Z,98.80
2022-09-21T05:19:19.172Z,98.80
2022-09-21T05:21:47.669Z,98.80
2022-09-21T05:24:15.770Z,99.10
2022-09-21T05:26:44.104Z,98.70
2022-09-21T05:29:12.816Z,98.70
2022-09-21T05:31:45.459Z,98.70
2022-09-21T05:34:36.205Z,98.70
2022-09-21T05:37:11.342Z,98.80
2022-09-21T05:39:39.802Z,98.80
2022-09-21T05:42:12.876Z,98.90
2022-09-21T05:44:41.610Z,98.90
2022-09-21T05:47:23.263Z,99.00
2022-09-21T05:50:03.536Z,99.10
2022-09-21T05:52:41.065Z,99.10
2022-09-21T05:55:22.221Z,99.10
2022-09-21T05:57:58.302Z,99.20
2022-09-21T06:00:27.238Z,99.20
2022-09-21T06:03:17.970Z,99.30
2022-09-21T06:05:50.808Z,99.40
2022-09-21T06:08:19.041Z,99.40
2022-09-21T06:10:48.776Z,99.50
2022-09-21T06:13:17.987Z,99.60
2022-09-21T06:15:46.218Z,99.70
2022-09-21T06:18:17.939Z,99.70
2022-09-21T06:20:50.504Z,99.70
2022-09-21T06:23:18.786Z,99.80
2022-09-21T06:25:55.914Z,99.80
2022-09-21T06:28:26.644Z,99.80
2022-09-21T06:30:57.253Z,99.90
2022-09-21T06:33:29.545Z,99.90
2022-09-21T06:36:00.365Z,99.90
2022-09-21T06:38:29.627Z,99.90
2022-09-21T06:41:02.281Z,99.90
2022-09-21T06:43:30.515Z,99.90
2022-09-21T06:46:00.219Z,99.90
2022-09-21T06:48:29.658Z,99.90
2022-09-21T06:51:03.730Z,99.90
2022-09-21T06:53:33.152Z,99.90
2022-09-21T06:56:05.347Z,99.90
2022-09-21T06:58:37.968Z,99.90
2022-09-21T07:01:08.379Z,99.90
2022-09-21T07:03:37.292Z,99.90
2022-09-21T07:06:07.718Z,99.90
2022-09-21T07:11:25.369Z,99.90
2022-09-21T07:13:53.452Z,99.90
2022-09-21T07:16:22.066Z,99.90
2022-09-21T07:18:51.671Z,99.90
2022-09-21T07:21:21.971Z,99.90
2022-09-21T07:23:50.237Z,99.90
2022-09-21T07:26:18.461Z,99.90
2022-09-21T07:28:46.537Z,99.90
2022-09-21T07:31:17.342Z,99.90
2022-09-21T07:33:47.173Z,99.90
2022-09-21T07:36:17.765Z,99.90
2022-09-21T07:38:47.602Z,99.90
2022-09-21T07:41:16.088Z,99.90
2022-09-21T07:43:44.279Z,99.90
2022-09-21T07:46:14.849Z,99.90
2022-09-21T07:48:43.570Z,99.90
2022-09-21T07:51:13.179Z,99.90
2022-09-21T07:53:43.381Z,99.90
2022-09-21T07:56:14.728Z,99.90
2022-09-21T07:59:00.684Z,99.90
2022-09-21T08:01:29.544Z,99.90
2022-09-21T08:03:58.962Z,99.90
2022-09-21T08:06:30.522Z,99.90
2022-09-21T08:09:01.929Z,99.90
2022-09-21T08:11:33.745Z,99.90
2022-09-21T08:14:03.750Z,99.90
2022-09-21T08:16:34.139Z,99.90
2022-09-21T08:19:04.791Z,99.90
2022-09-21T08:21:34.524Z,99.90
2022-09-21T08:24:03.156Z,99.90
2022-09-21T08:26:33.831Z,99.90
2022-09-21T08:29:01.846Z,99.90
2022-09-21T08:31:33.785Z,99.90
2022-09-21T08:34:01.929Z,99.90
2022-09-21T08:36:30.630Z,99.90
2022-09-21T08:38:59.074Z,99.90
2022-09-21T08:41:45.187Z,99.90
2022-09-21T08:44:18.139Z,99.90
2022-09-21T08:46:49.831Z,99.90
2022-09-21T08:49:23.243Z,99.90
2022-09-21T08:51:55.726Z,99.90
2022-09-21T08:54:31.877Z,99.90
2022-09-21T08:57:05.839Z,99.90
2022-09-21T08:59:34.684Z,99.90
2022-09-21T09:02:22.322Z,99.90
2022-09-21T09:04:58.801Z,99.90
2022-09-21T09:07:43.863Z,99.90
2022-09-21T09:10:34.635Z,99.90
2022-09-21T09:13:21.736Z,99.90
2022-09-21T09:16:05.857Z,99.90
2022-09-21T09:18:43.899Z,99.90
2022-09-21T09:21:26.957Z,99.90
2022-09-21T09:24:03.371Z,99.90
2022-09-21T09:26:36.938Z,99.90
2022-09-21T09:29:13.245Z,99.90
2022-09-21T09:31:42.367Z,99.90
2022-09-21T09:34:16.972Z,99.70
2022-09-21T09:36:58.744Z,99.60
2022-09-21T09:39:31.919Z,99.60
2022-09-21T09:42:37.948Z,99.40
2022-09-21T09:45:29.506Z,99.20
2022-09-21T09:48:17.743Z,99.10
2022-09-21T09:50:46.516Z,98.70
2022-09-21T09:53:18.807Z,98.10
2022-09-21T09:55:49.666Z,97.70
2022-09-21T09:58:22.523Z,97.30
2022-09-21T10:00:54.055Z,97.00
2022-09-21T10:03:24.484Z,96.80
2022-09-21T10:05:53.365Z,96.90
2022-09-21T10:08:46.702Z,96.80
2022-09-21T10:11:17.524Z,96.70
2022-09-21T10:13:50.568Z,96.50
2022-09-21T10:16:24.559Z,96.10
2022-09-21T10:18:56.659Z,95.60
2022-09-21T10:21:27.629Z,95.40
2022-09-21T10:24:00.543Z,95.10
2022-09-21T10:26:34.038Z,95.00
2022-09-21T10:29:17.958Z,95.10
2022-09-21T10:31:57.930Z,95.30
2022-09-21T10:34:28.032Z,95.30
2022-09-21T10:36:58.478Z,95.10
2022-09-21T10:39:29.642Z,95.00
2022-09-21T10:42:07.085Z,95.10
2022-09-21T10:44:40.254Z,95.10
2022-09-21T10:47:25.020Z,95.00
2022-09-21T10:49:55.805Z,94.70
2022-09-21T10:52:26.676Z,94.40
2022-09-21T10:54:57.501Z,94.50
2022-09-21T10:57:28.113Z,94.40
2022-09-21T10:59:57.516Z,94.20
2022-09-21T11:02:39.099Z,93.80
2022-09-21T11:05:25.640Z,93.40
2022-09-21T11:07:56.472Z,93.60
2022-09-21T11:10:34.629Z,93.30
2022-09-21T11:13:19.516Z,93.10
2022-09-21T11:15:54.319Z,93.00
2022-09-21T11:18:45.138Z,92.70
2022-09-21T11:21:21.088Z,92.40
2022-09-21T11:23:58.295Z,92.00
2022-09-21T11:26:32.992Z,92.10
2022-09-21T11:29:07.209Z,91.60
2022-09-21T11:31:42.397Z,91.20
2022-09-21T11:34:32.967Z,90.90
2022-09-21T11:37:11.838Z,90.40
2022-09-21T11:39:51.940Z,90.20
2022-09-21T11:42:36.038Z,90.10
2022-09-21T11:45:12.093Z,89.90
2022-09-21T11:48:02.627Z,88.80
2022-09-21T11:53:50.110Z,89.20
2022-09-21T11:56:43.734Z,89.90
2022-09-21T11:59:33.196Z,90.10
2022-09-21T12:02:37.994Z,90.10
2022-09-21T12:05:17.665Z,89.40
2022-09-21T12:08:03.093Z,89.70
2022-09-21T12:10:44.901Z,88.80
2022-09-21T12:13:25.097Z,87.00
2022-09-21T12:16:02.966Z,86.50
2022-09-21T12:18:43.873Z,86.50
2022-09-21T12:21:19.933Z,85.90
2022-09-21T12:23:52.052Z,82.90
2022-09-21T12:26:25.262Z,82.50
2022-09-21T12:29:00.754Z,82.30
2022-09-21T12:31:36.042Z,82.30
2022-09-21T12:34:11.168Z,81.40
2022-09-21T12:36:42.487Z,80.60
2022-09-21T12:39:18.780Z,79.80
2022-09-21T12:41:54.115Z,79.00
2022-09-21T12:44:52.224Z,78.20
2022-09-21T12:47:27.981Z,78.40
2022-09-21T12:50:03.651Z,77.90
2022-09-21T12:52:33.371Z,76.80
2022-09-21T12:55:12.875Z,75.70
2022-09-21T13:00:53.993Z,75.00
2022-09-21T13:03:29.055Z,74.80
2022-09-21T13:06:30.069Z,74.10
2022-09-21T13:09:03.351Z,72.40
2022-09-21T13:11:35.788Z,72.60
2022-09-21T13:14:06.046Z,72.40
2022-09-21T13:16:36.754Z,72.40
2022-09-21T13:19:16.998Z,71.50
2022-09-21T13:21:45.188Z,71.20
2022-09-21T13:24:28.355Z,70.00
2022-09-21T13:26:59.946Z,69.40
2022-09-21T13:29:33.697Z,69.70
2022-09-21T13:32:03.832Z,70.10
2022-09-21T13:34:34.599Z,69.40
2022-09-21T13:37:34.208Z,69.40
2022-09-21T13:40:38.848Z,68.70
2022-09-21T13:43:47.033Z,69.40
2022-09-21T13:46:49.433Z,70.50
2022-09-21T13:49:23.522Z,70.60
2022-09-21T13:51:56.281Z,70.00
2022-09-21T13:54:27.466Z,69.50
2022-09-21T13:57:16.130Z,69.50
2022-09-21T13:59:46.222Z,70.60
2022-09-21T14:02:32.493Z,71.20
2022-09-21T14:05:08.118Z,70.70
2022-09-21T14:07:36.749Z,70.70
2022-09-21T14:10:08.672Z,70.30
2022-09-21T14:12:45.460Z,69.20
2022-09-21T14:15:49.587Z,69.20
2022-09-21T14:18:36.907Z,68.80
2022-09-21T14:21:17.440Z,69.50
2022-09-21T14:24:28.339Z,70.10
2022-09-21T14:27:03.459Z,70.60
2022-09-21T14:29:40.415Z,70.70
2022-09-21T14:32:17.121Z,71.70
2022-09-21T14:34:50.111Z,70.90
2022-09-21T14:37:32.353Z,70.60
2022-09-21T14:40:04.293Z,70.40
2022-09-21T14:42:34.211Z,70.90
2022-09-21T14:45:03.955Z,71.40
2022-09-21T14:47:54.031Z,71.90
2022-09-21T14:50:36.233Z,71.90
2022-09-21T14:53:21.522Z,72.10
2022-09-21T14:56:05.217Z,72.60
2022-09-21T14:58:45.175Z,73.20
2022-09-21T15:01:39.128Z,73.70
2022-09-21T15:04:45.290Z,74.20
2022-09-21T15:07:49.606Z,74.60
2022-09-21T15:10:42.747Z,74.90
2022-09-21T15:13:20.447Z,75.00
2022-09-21T15:16:08.076Z,75.00
2022-09-21T15:18:41.849Z,75.30
2022-09-21T15:21:22.542Z,75.40
2022-09-21T15:23:53.385Z,75.50
2022-09-21T15:26:26.581Z,75.60
2022-09-21T15:29:09.288Z,75.70
2022-09-21T15:31:41.269Z,76.00
2022-09-21T15:34:11.266Z,76.30
2022-09-21T15:36:40.618Z,76.60
2022-09-21T15:39:23.560Z,76.90
2022-09-21T15:42:09.281Z,77.10
2022-09-21T15:44:39.476Z,77.50
2022-09-21T15:47:12.494Z,77.30
2022-09-21T15:49:41.470Z,77.10
2022-09-21T15:52:16.029Z,76.90
2022-09-21T15:54:49.107Z,76.80
2022-09-21T15:57:38.852Z,77.00
2022-09-21T16:00:19.281Z,76.80
2022-09-21T16:03:04.558Z,76.30
2022-09-21T16:05:43.127Z,76.50
2022-09-21T16:08:22.575Z,76.90
2022-09-21T16:10:52.243Z,77.20
2022-09-21T16:13:39.981Z,77.30
2022-09-21T16:16:09.851Z,77.40
2022-09-21T16:18:47.895Z,77.30
2022-09-21T16:21:21.986Z,77.20
2022-09-21T16:23:51.874Z,77.00
2022-09-21T16:26:24.823Z,76.70
2022-09-21T16:28:59.773Z,76.70
2022-09-21T16:31:31.589Z,76.80
2022-09-21T16:34:06.449Z,77.00
2022-09-21T16:36:45.280Z,76.90
2022-09-21T16:39:16.040Z,76.90
2022-09-21T16:41:49.268Z,76.80
2022-09-21T16:44:22.907Z,77.60
2022-09-21T16:46:57.657Z,76.70
2022-09-21T16:49:30.564Z,77.00
2022-09-21T16:51:59.845Z,77.70
2022-09-21T16:54:28.548Z,78.80
2022-09-21T16:56:59.870Z,79.70
2022-09-21T16:59:29.097Z,80.30
2022-09-21T17:01:59.079Z,80.90
2022-09-21T17:04:29.047Z,81.30
2022-09-21T17:06:57.910Z,81.80
2022-09-21T17:09:29.918Z,82.20
2022-09-21T17:12:01.854Z,82.60
2022-09-21T17:14:35.147Z,82.80
2022-09-21T17:17:08.683Z,83.00
2022-09-21T17:19:37.127Z,83.30
2022-09-21T17:22:07.070Z,83.60
2022-09-21T17:24:50.386Z,84.00
2022-09-21T17:27:22.706Z,84.30
2022-09-21T17:29:53.769Z,84.70
2022-09-21T17:32:24.560Z,85.00
2022-09-21T17:34:58.792Z,85.30
2022-09-21T17:37:27.307Z,85.60
2022-09-21T17:39:55.337Z,85.70
2022-09-21T17:42:26.066Z,86.60
2022-09-21T17:45:12.802Z,87.80
2022-09-21T17:51:47.930Z,87.90
2022-09-21T17:54:28.910Z,88.60
2022-09-21T17:57:01.624Z,88.90
2022-09-21T17:59:34.220Z,89.20
2022-09-21T18:02:03.597Z,89.40
2022-09-21T18:04:35.071Z,89.70
2022-09-21T18:07:03.954Z,90.00
2022-09-21T18:09:32.702Z,90.10
2022-09-21T18:12:35.184Z,90.30
2022-09-21T18:15:18.485Z,90.50
2022-09-21T18:18:05.836Z,90.80
2022-09-21T18:20:47.999Z,91.00
2022-09-21T18:23:23.826Z,91.20
2022-09-21T18:25:56.649Z,91.30
2022-09-21T18:28:38.968Z,91.50
2022-09-21T18:31:21.294Z,91.60
2022-09-21T18:33:57.799Z,91.70
2022-09-21T18:36:32.045Z,91.90
2022-09-21T18:39:06.826Z,91.90
2022-09-21T18:41:41.212Z,92.00
2022-09-21T18:44:16.199Z,92.30
2022-09-21T18:46:56.945Z,92.40
2022-09-21T18:49:44.988Z,92.50
2022-09-21T18:52:22.491Z,92.60
2022-09-21T18:54:51.464Z,92.90
2022-09-21T18:57:19.786Z,93.00
2022-09-21T18:59:56.078Z,93.20
2022-09-21T19:02:27.235Z,93.40
2022-09-21T19:04:59.259Z,93.50
2022-09-21T19:07:35.279Z,93.60
2022-09-21T19:10:15.268Z,93.70
2022-09-21T19:12:57.318Z,93.90
2022-09-21T19:15:58.506Z,94.00
2022-09-21T19:18:31.046Z,94.10
2022-09-21T19:21:15.412Z,94.10
2022-09-21T19:24:04.853Z,94.20
2022-09-21T20:14:04.465Z,95.50
2022-09-21T20:16:41.535Z,95.50
2022-09-21T20:19:27.463Z,95.60
2022-09-21T20:22:01.924Z,95.60
2022-09-21T20:24:34.659Z,95.60
2022-09-21T20:27:14.666Z,95.60
2022-09-21T20:29:46.790Z,95.60
2022-09-21T20:32:15.678Z,95.60
2022-09-21T20:34:43.815Z,95.70
2022-09-21T20:37:13.357Z,95.80
2022-09-21T20:39:42.322Z,95.80
2022-09-21T20:42:15.850Z,95.80
2022-09-21T20:44:45.194Z,95.80
2022-09-21T20:47:13.429Z,95.90
2022-09-21T20:49:41.483Z,96.00
2022-09-21T20:52:11.220Z,95.90
2022-09-21T20:54:39.939Z,96.30
2022-09-21T20:57:08.820Z,96.00
2022-09-21T20:59:36.799Z,96.00
2022-09-21T21:02:07.432Z,96.10
2022-09-21T21:04:35.596Z,96.10
2022-09-21T21:07:03.613Z,96.10
2022-09-21T21:09:31.776Z,96.10
2022-09-21T21:12:00.223Z,96.20
2022-09-21T21:14:29.279Z,96.10
2022-09-21T21:16:58.004Z,96.10
2022-09-21T21:19:27.656Z,96.10
2022-09-21T21:21:55.636Z,96.20
2022-09-21T21:24:42.343Z,96.20
2022-09-21T21:27:16.406Z,96.20
2022-09-21T21:29:46.258Z,96.30
2022-09-21T21:32:15.640Z,96.40
2022-09-21T21:34:45.258Z,96.40
2022-09-21T21:37:16.044Z,96.40
2022-09-21T21:39:44.615Z,96.40
2022-09-21T21:42:13.340Z,96.50
2022-09-21T21:44:41.763Z,96.50
2022-09-21T21:47:37.728Z,96.60
2022-09-21T21:50:00.209Z,96.50
2022-09-21T21:52:28.435Z,96.60
2022-09-21T21:54:56.486Z,96.50
2022-09-21T21:57:24.962Z,96.50
2022-09-21T21:59:53.276Z,96.60
2022-09-21T22:02:21.627Z,96.60
2022-09-21T22:04:49.728Z,96.60
2022-09-21T22:07:19.536Z,96.50
2022-09-21T22:09:47.982Z,96.40
2022-09-21T22:12:16.798Z,96.30
2022-09-21T22:14:46.539Z,96.20
2022-09-21T22:17:15.265Z,96.20
2022-09-21T22:19:43.858Z,96.30
2022-09-21T22:22:12.242Z,96.30
2022-09-21T22:24:41.890Z,96.30
2022-09-21T22:27:10.016Z,96.30
2022-09-21T22:29:39.653Z,96.30
2022-09-21T22:32:07.765Z,96.30
2022-09-21T22:34:35.947Z,96.30
2022-09-21T22:37:04.561Z,96.30
2022-09-21T22:39:32.849Z,96.30
2022-09-21T22:42:02.344Z,96.30
2022-09-21T22:44:31.134Z,96.30
2022-09-21T22:46:59.244Z,96.30
2022-09-21T22:49:27.399Z,96.40
2022-09-21T22:51:55.550Z,96.40
2022-09-21T22:54:23.686Z,96.40
2022-09-21T22:56:51.818Z,96.50
2022-09-21T22:59:21.398Z,96.50
2022-09-21T23:01:49.553Z,96.50
2022-09-21T23:04:17.902Z,96.60
2022-09-21T23:06:46.708Z,96.60
2022-09-21T23:09:17.158Z,96.60
2022-09-21T23:11:48.158Z,96.60
2022-09-21T23:14:17.446Z,96.70
2022-09-21T23:16:47.487Z,96.70
2022-09-21T23:19:16.485Z,96.70
2022-09-21T23:21:46.269Z,96.70
2022-09-21T23:24:14.626Z,96.70
2022-09-21T23:26:43.156Z,96.70
2022-09-21T23:29:13.867Z,96.70
2022-09-21T23:31:45.313Z,96.70
2022-09-21T23:34:16.259Z,96.70
2022-09-21T23:36:45.853Z,96.70
2022-09-21T23:39:15.523Z,96.80
2022-09-21T23:41:44.565Z,96.80
2022-09-21T23:44:12.698Z,96.70
2022-09-21T23:46:41.247Z,96.80
2022-09-21T23:49:09.660Z,96.90
2022-09-21T23:51:39.451Z,96.90
2022-09-21T23:54:08.016Z,96.90
2022-09-21T23:56:36.357Z,96.90
2022-09-21T23:59:05.548Z,96.90
